createdAt,value
2023-05-18T00:00:14.367Z,100161.94
2023-05-18T00:02:42.007Z,100159.09
2023-05-18T00:05:10.536Z,100148.19
2023-05-18T00:07:37.711Z,100157.59
2023-05-18T00:10:05.025Z,100155.84
2023-05-18T00:12:32.130Z,100140.13
2023-05-18T00:14:59.228Z,100138.06
2023-05-18T00:17:26.321Z,100116.41
2023-05-18T00:19:53.440Z,100120.97
2023-05-18T00:22:20.564Z,100117.81
2023-05-18T00:24:48.587Z,100121.63
2023-05-18T00:27:15.846Z,100125.34
2023-05-18T00:29:42.865Z,100132.44
2023-05-18T00:32:12.364Z,100124.56
2023-05-18T00:34:39.390Z,100111.09
2023-05-18T00:37:06.522Z,100119.47
2023-05-18T00:39:33.591Z,100128.13
2023-05-18T00:42:03.099Z,100133.22
2023-05-18T00:44:30.207Z,100137.41
2023-05-18T00:46:57.240Z,100141.81
2023-05-18T00:49:24.303Z,100127.81
2023-05-18T00:51:51.457Z,100136.03
2023-05-18T00:54:19.513Z,100139.53
2023-05-18T00:56:48.534Z,100146.25
2023-05-18T00:59:16.613Z,100142.22
2023-05-18T01:01:46.703Z,100151.41
2023-05-18T01:04:16.477Z,100151.75
2023-05-18T01:06:43.940Z,100146.09
2023-05-18T01:09:12.526Z,100150.88
2023-05-18T01:11:58.236Z,100143.00
2023-05-18T01:14:34.410Z,100141.50
2023-05-18T01:17:28.916Z,100138.06
2023-05-18T01:20:26.906Z,100133.75
2023-05-18T01:23:15.300Z,100135.19
2023-05-18T01:25:50.552Z,100126.78
2023-05-18T01:28:20.091Z,100136.19
2023-05-18T01:30:47.976Z,100135.19
2023-05-18T01:33:15.270Z,100141.66
2023-05-18T01:35:48.214Z,100135.41
2023-05-18T01:38:22.749Z,100141.19
2023-05-18T01:41:08.457Z,100137.34
2023-05-18T01:43:36.718Z,100142.50
2023-05-18T01:46:19.164Z,100147.31
2023-05-18T01:48:52.321Z,100146.25
2023-05-18T01:51:21.642Z,100153.41
2023-05-18T01:54:00.832Z,100153.78
2023-05-18T01:56:28.178Z,100142.91
2023-05-18T01:58:55.562Z,100149.38
2023-05-18T02:01:24.211Z,100152.19
2023-05-18T02:03:51.848Z,100152.50
2023-05-18T02:06:19.067Z,100157.44
2023-05-18T02:08:46.461Z,100154.22
2023-05-18T02:11:13.570Z,100163.97
2023-05-18T02:13:41.152Z,100165.31
2023-05-18T02:16:08.724Z,100157.72
2023-05-18T02:18:36.576Z,100158.03
2023-05-18T02:21:04.407Z,100171.22
2023-05-18T02:23:32.193Z,100163.94
2023-05-18T02:25:59.217Z,100173.19
2023-05-18T02:28:26.307Z,100167.88
2023-05-18T02:30:53.382Z,100173.41
2023-05-18T02:33:26.590Z,100177.34
2023-05-18T02:35:54.050Z,100181.03
2023-05-18T02:38:21.576Z,100184.25
2023-05-18T02:40:48.715Z,100179.88
2023-05-18T02:43:17.197Z,100183.47
2023-05-18T02:45:45.396Z,100197.31
2023-05-18T02:48:12.546Z,100196.38
2023-05-18T02:50:39.844Z,100200.50
2023-05-18T02:53:07.149Z,100208.78
2023-05-18T02:55:34.276Z,100206.97
2023-05-18T02:58:15.152Z,100206.63
2023-05-18T03:01:12.536Z,100220.81
2023-05-18T03:03:47.498Z,100214.97
2023-05-18T03:06:16.221Z,100216.00
2023-05-18T03:08:44.476Z,100217.00
2023-05-18T03:11:13.044Z,100226.56
2023-05-18T03:13:40.136Z,100226.56
2023-05-18T03:16:07.479Z,100238.56
2023-05-18T03:18:35.168Z,100233.38
2023-05-18T03:21:03.577Z,100244.81
2023-05-18T03:23:30.631Z,100239.53
2023-05-18T03:25:57.946Z,100234.06
2023-05-18T03:28:28.618Z,100239.00
2023-05-18T03:30:55.998Z,100232.16
2023-05-18T03:33:23.377Z,100232.75
2023-05-18T03:35:52.467Z,100233.75
2023-05-18T03:38:19.736Z,100226.91
2023-05-18T03:40:54.021Z,100228.53
2023-05-18T03:43:21.238Z,100231.44
2023-05-18T03:45:48.551Z,100233.19
2023-05-18T03:48:16.039Z,100235.06
2023-05-18T03:50:43.962Z,100225.34
2023-05-18T03:53:11.627Z,100224.34
2023-05-18T03:55:38.785Z,100222.41
2023-05-18T03:58:05.954Z,100226.78
2023-05-18T04:00:33.061Z,100224.03
2023-05-18T04:03:00.866Z,100225.69
2023-05-18T04:05:28.734Z,100227.25
2023-05-18T04:07:57.777Z,100234.88
2023-05-18T04:10:24.975Z,100236.13
2023-05-18T04:12:52.110Z,100239.84
2023-05-18T04:15:19.182Z,100229.81
2023-05-18T04:17:46.369Z,100231.63
2023-05-18T04:20:14.890Z,100233.91
2023-05-18T04:22:48.666Z,100237.19
2023-05-18T04:25:17.506Z,100236.19
2023-05-18T04:27:50.593Z,100235.81
2023-05-18T04:30:19.141Z,100232.38
2023-05-18T04:32:46.394Z,100247.22
2023-05-18T04:35:13.557Z,100258.16
2023-05-18T04:37:41.259Z,100263.91
2023-05-18T04:40:17.255Z,100264.16
2023-05-18T04:42:48.441Z,100267.63
2023-05-18T04:45:23.157Z,100273.69
2023-05-18T04:47:54.640Z,100269.44
2023-05-18T04:50:24.027Z,100265.78
2023-05-18T04:52:52.816Z,100273.03
2023-05-18T04:55:29.229Z,100267.09
2023-05-18T04:58:10.993Z,100262.84
2023-05-18T05:00:38.704Z,100266.00
2023-05-18T05:03:06.523Z,100259.66
2023-05-18T05:05:34.984Z,100271.72
2023-05-18T05:08:02.207Z,100273.94
2023-05-18T05:10:30.172Z,100273.94
2023-05-18T05:12:57.281Z,100287.06
2023-05-18T05:15:25.060Z,100278.56
2023-05-18T05:17:52.490Z,100279.47
2023-05-18T05:20:19.925Z,100275.72
2023-05-18T05:22:47.856Z,100277.72
2023-05-18T05:25:17.873Z,100275.25
2023-05-18T05:27:45.166Z,100278.16
2023-05-18T05:30:13.177Z,100281.34
2023-05-18T05:32:42.052Z,100284.22
2023-05-18T05:35:09.573Z,100283.47
2023-05-18T05:37:37.374Z,100284.25
2023-05-18T05:40:06.813Z,100282.41
2023-05-18T05:42:39.426Z,100269.47
2023-05-18T05:45:08.702Z,100272.94
2023-05-18T05:47:43.138Z,100286.19
2023-05-18T05:50:10.984Z,100285.50
2023-05-18T05:52:38.478Z,100289.84
2023-05-18T05:55:06.781Z,100289.94
2023-05-18T05:57:33.925Z,100297.84
2023-05-18T06:00:01.787Z,100292.25
2023-05-18T06:02:32.248Z,100299.59
2023-05-18T06:04:59.713Z,100304.38
2023-05-18T06:07:27.462Z,100308.56
2023-05-18T06:09:54.918Z,100315.88
2023-05-18T06:12:22.055Z,100308.84
2023-05-18T06:14:49.408Z,100297.97
2023-05-18T06:17:16.575Z,100302.00
2023-05-18T06:19:44.818Z,100288.53
2023-05-18T06:22:12.025Z,100292.47
2023-05-18T06:24:46.739Z,100289.47
2023-05-18T06:27:36.956Z,100281.28
2023-05-18T06:30:20.539Z,100269.88
2023-05-18T06:33:10.318Z,100267.16
2023-05-18T06:35:37.674Z,100270.59
2023-05-18T06:38:05.048Z,100272.19
2023-05-18T06:40:32.200Z,100295.13
2023-05-18T06:42:59.401Z,100302.06
2023-05-18T06:45:36.103Z,100312.38
2023-05-18T06:48:19.087Z,100296.63
2023-05-18T06:50:46.278Z,100291.91
2023-05-18T06:53:13.928Z,100299.84
2023-05-18T06:55:41.082Z,100299.16
2023-05-18T06:58:08.145Z,100307.13
2023-05-18T07:00:35.345Z,100311.00
2023-05-18T07:03:03.767Z,100316.00
2023-05-18T07:05:31.183Z,100317.84
2023-05-18T07:07:58.467Z,100323.50
2023-05-18T07:10:25.700Z,100324.50
2023-05-18T07:12:52.929Z,100323.38
2023-05-18T07:15:20.042Z,100327.44
2023-05-18T07:17:47.298Z,100347.13
2023-05-18T07:20:14.464Z,100357.56
2023-05-18T07:22:41.487Z,100355.81
2023-05-18T07:25:09.029Z,100362.41
2023-05-18T07:27:36.077Z,100358.78
2023-05-18T07:30:03.605Z,100375.38
2023-05-18T07:32:30.788Z,100377.75
2023-05-18T07:34:57.825Z,100375.59
2023-05-18T07:37:24.876Z,100371.91
2023-05-18T07:39:52.644Z,100366.78
2023-05-18T07:42:19.684Z,100366.38
2023-05-18T07:44:46.833Z,100375.47
2023-05-18T07:47:13.925Z,100381.41
2023-05-18T07:49:40.953Z,100377.88
2023-05-18T07:52:08.600Z,100367.78
2023-05-18T07:54:35.780Z,100353.41
2023-05-18T07:57:04.355Z,100360.78
2023-05-18T07:59:31.708Z,100371.50
2023-05-18T08:02:00.240Z,100378.22
2023-05-18T08:04:27.605Z,100377.03
2023-05-18T08:06:55.120Z,100375.41
2023-05-18T08:09:22.372Z,100382.22
2023-05-18T08:11:51.146Z,100365.16
2023-05-18T08:14:18.309Z,100361.75
2023-05-18T08:16:45.874Z,100382.47
2023-05-18T08:19:13.022Z,100383.25
2023-05-18T08:21:40.768Z,100378.75
2023-05-18T08:24:09.489Z,100382.50
2023-05-18T08:26:36.684Z,100385.00
2023-05-18T08:29:09.805Z,100385.16
2023-05-18T08:31:38.289Z,100383.59
2023-05-18T08:34:06.318Z,100389.94
2023-05-18T08:36:35.537Z,100392.25
2023-05-18T08:39:03.091Z,100397.88
2023-05-18T08:41:32.423Z,100390.53
2023-05-18T08:44:38.905Z,100392.03
2023-05-18T08:47:10.474Z,100406.03
2023-05-18T08:49:38.394Z,100411.81
2023-05-18T08:52:08.254Z,100413.53
2023-05-18T08:54:38.041Z,100420.03
2023-05-18T08:57:09.019Z,100421.19
2023-05-18T08:59:41.277Z,100390.81
2023-05-18T09:02:09.008Z,100382.03
2023-05-18T09:04:38.023Z,100389.66
2023-05-18T09:07:06.983Z,100396.84
2023-05-18T09:09:35.906Z,100393.28
2023-05-18T09:12:04.202Z,100390.03
2023-05-18T09:14:32.410Z,100389.84
2023-05-18T09:16:59.482Z,100384.25
2023-05-18T09:19:26.931Z,100391.94
2023-05-18T09:21:54.074Z,100386.63
2023-05-18T09:24:24.401Z,100385.19
2023-05-18T09:26:51.966Z,100383.72
2023-05-18T09:29:21.217Z,100395.78
2023-05-18T09:31:48.908Z,100399.59
2023-05-18T09:34:19.128Z,100396.72
2023-05-18T09:36:57.861Z,100399.91
2023-05-18T09:39:25.090Z,100401.28
2023-05-18T09:41:59.525Z,100398.75
2023-05-18T09:44:34.444Z,100387.22
2023-05-18T09:47:02.210Z,100386.63
2023-05-18T09:49:31.118Z,100384.03
2023-05-18T09:52:00.264Z,100390.59
2023-05-18T09:54:27.634Z,100398.06
2023-05-18T09:57:08.867Z,100394.84
2023-05-18T09:59:37.847Z,100404.06
2023-05-18T10:02:06.248Z,100401.28
2023-05-18T10:04:43.437Z,100382.78
2023-05-18T10:07:15.848Z,100376.63
2023-05-18T10:09:45.300Z,100390.34
2023-05-18T10:12:14.094Z,100388.16
2023-05-18T10:14:45.678Z,100372.44
2023-05-18T10:17:16.264Z,100371.00
2023-05-18T10:19:44.950Z,100387.84
2023-05-18T10:22:21.078Z,100391.56
2023-05-18T10:24:52.380Z,100384.88
2023-05-18T10:27:28.667Z,100382.72
2023-05-18T10:29:58.664Z,100386.31
2023-05-18T10:32:26.376Z,100383.56
2023-05-18T10:34:55.386Z,100375.59
2023-05-18T10:37:31.059Z,100375.00
2023-05-18T10:40:00.600Z,100370.84
2023-05-18T10:42:30.900Z,100364.28
2023-05-18T10:44:58.372Z,100371.25
2023-05-18T10:47:26.532Z,100362.50
2023-05-18T10:49:54.416Z,100360.69
2023-05-18T10:52:21.877Z,100370.59
2023-05-18T10:54:49.219Z,100364.16
2023-05-18T10:57:20.138Z,100363.72
2023-05-18T10:59:48.619Z,100356.56
2023-05-18T11:02:18.778Z,100359.25
2023-05-18T11:04:51.932Z,100357.97
2023-05-18T11:07:21.812Z,100358.09
2023-05-18T11:09:49.917Z,100351.09
2023-05-18T11:12:20.882Z,100355.00
2023-05-18T11:14:53.110Z,100356.59
2023-05-18T11:17:25.693Z,100355.31
2023-05-18T11:20:06.001Z,100353.72
2023-05-18T11:22:47.844Z,100348.91
2023-05-18T11:25:28.547Z,100347.34
2023-05-18T11:28:02.297Z,100364.75
2023-05-18T11:30:31.312Z,100360.06
2023-05-18T11:33:15.347Z,100360.19
2023-05-18T11:35:57.553Z,100355.75
2023-05-18T11:38:47.980Z,100362.59
2023-05-18T11:41:42.721Z,100354.84
2023-05-18T11:44:12.935Z,100360.94
2023-05-18T11:47:03.914Z,100358.06
2023-05-18T11:49:54.035Z,100365.16
2023-05-18T11:52:23.192Z,100354.72
2023-05-18T11:54:54.342Z,100360.41
2023-05-18T11:57:35.851Z,100355.47
2023-05-18T12:00:10.766Z,100354.22
2023-05-18T12:02:45.182Z,100355.28
2023-05-18T12:05:13.968Z,100355.72
2023-05-18T12:07:41.784Z,100351.22
2023-05-18T12:10:11.610Z,100352.81
2023-05-18T12:12:40.008Z,100357.41
2023-05-18T12:15:09.448Z,100365.81
2023-05-18T12:17:42.666Z,100355.44
2023-05-18T12:20:11.985Z,100357.81
2023-05-18T12:22:40.606Z,100356.34
2023-05-18T12:25:08.502Z,100358.47
2023-05-18T12:27:43.966Z,100356.75
2023-05-18T12:30:22.141Z,100367.75
2023-05-18T12:32:51.045Z,100352.94
2023-05-18T12:35:25.547Z,100357.06
2023-05-18T12:37:55.767Z,100353.50
2023-05-18T12:40:23.574Z,100351.94
2023-05-18T12:42:57.592Z,100361.84
2023-05-18T12:45:28.262Z,100358.78
2023-05-18T12:47:56.445Z,100361.19
2023-05-18T12:50:28.534Z,100359.03
2023-05-18T12:52:56.940Z,100365.91
2023-05-18T12:55:28.391Z,100359.94
2023-05-18T12:58:18.363Z,100356.56
2023-05-18T13:00:47.325Z,100363.41
2023-05-18T13:03:20.469Z,100372.03
2023-05-18T13:06:05.129Z,100358.31
2023-05-18T13:08:33.190Z,100357.81
2023-05-18T13:11:12.688Z,100363.94
2023-05-18T13:13:57.372Z,100362.28
2023-05-18T13:16:24.549Z,100362.22
2023-05-18T13:18:59.313Z,100356.91
2023-05-18T13:21:26.972Z,100355.22
2023-05-18T13:23:54.181Z,100353.16
2023-05-18T13:26:23.125Z,100361.44
2023-05-18T13:28:53.308Z,100361.69
2023-05-18T13:31:21.162Z,100366.09
2023-05-18T13:33:49.717Z,100377.28
2023-05-18T13:36:17.873Z,100380.75
2023-05-18T13:38:44.935Z,100371.34
2023-05-18T13:41:14.999Z,100366.91
2023-05-18T13:43:43.001Z,100366.34
2023-05-18T13:46:10.321Z,100358.75
2023-05-18T13:48:37.686Z,100358.69
2023-05-18T13:51:04.898Z,100361.88
2023-05-18T13:53:32.091Z,100363.91
2023-05-18T13:55:59.136Z,100360.16
2023-05-18T13:58:26.168Z,100356.53
2023-05-18T14:00:54.692Z,100366.19
2023-05-18T14:03:22.211Z,100358.19
2023-05-18T14:05:49.755Z,100362.75
2023-05-18T14:08:16.901Z,100362.13
2023-05-18T14:10:43.976Z,100361.16
2023-05-18T14:13:11.358Z,100361.31
2023-05-18T14:15:38.543Z,100348.03
2023-05-18T14:18:05.799Z,100347.63
2023-05-18T14:20:34.074Z,100349.34
2023-05-18T14:23:03.617Z,100349.03
2023-05-18T14:25:31.558Z,100350.06
2023-05-18T14:27:58.609Z,100351.78
2023-05-18T14:30:25.713Z,100347.59
2023-05-18T14:32:52.987Z,100347.59
2023-05-18T14:35:20.154Z,100336.06
2023-05-18T14:37:47.244Z,100336.47
2023-05-18T14:40:14.402Z,100346.78
2023-05-18T14:42:41.483Z,100342.97
2023-05-18T14:45:09.116Z,100338.16
2023-05-18T14:47:36.190Z,100343.19
2023-05-18T14:50:03.447Z,100338.88
2023-05-18T14:52:30.534Z,100342.88
2023-05-18T14:54:57.584Z,100341.56
2023-05-18T14:57:26.638Z,100330.59
2023-05-18T14:59:54.111Z,100336.25
2023-05-18T15:02:21.379Z,100336.91
2023-05-18T15:04:48.612Z,100334.16
2023-05-18T15:07:15.816Z,100331.81
2023-05-18T15:09:42.984Z,100327.34
2023-05-18T15:12:10.219Z,100328.28
2023-05-18T15:14:38.246Z,100323.50
2023-05-18T15:17:07.492Z,100323.50
2023-05-18T15:19:34.696Z,100320.38
2023-05-18T15:22:01.745Z,100322.72
2023-05-18T15:24:28.911Z,100323.50
2023-05-18T15:26:56.204Z,100330.19
2023-05-18T15:29:23.632Z,100322.56
2023-05-18T15:31:51.476Z,100321.06
2023-05-18T15:34:18.671Z,100320.53
2023-05-18T15:36:46.343Z,100317.53
2023-05-18T15:39:13.538Z,100315.94
2023-05-18T15:41:40.895Z,100308.13
2023-05-18T15:44:07.916Z,100303.09
2023-05-18T15:46:36.004Z,100301.50
2023-05-18T15:49:04.131Z,100298.16
2023-05-18T15:51:31.751Z,100302.34
2023-05-18T15:53:58.867Z,100290.72
2023-05-18T15:56:26.246Z,100300.41
2023-05-18T15:58:53.431Z,100304.00
2023-05-18T16:01:20.623Z,100303.88
2023-05-18T16:03:47.817Z,100303.66
2023-05-18T16:06:14.920Z,100307.59
2023-05-18T16:08:41.942Z,100314.25
2023-05-18T16:11:09.051Z,100314.00
2023-05-18T16:13:36.135Z,100315.75
2023-05-18T16:16:03.750Z,100317.31
2023-05-18T16:18:30.883Z,100327.75
2023-05-18T16:20:57.983Z,100322.50
2023-05-18T16:23:24.977Z,100332.63
2023-05-18T16:25:52.255Z,100333.81
2023-05-18T16:28:19.420Z,100336.69
2023-05-18T16:30:46.482Z,100332.94
2023-05-18T16:33:13.502Z,100344.34
2023-05-18T16:35:40.764Z,100331.09
2023-05-18T16:38:07.815Z,100342.56
2023-05-18T16:40:34.910Z,100343.38
2023-05-18T16:43:02.011Z,100341.50
2023-05-18T16:45:29.189Z,100341.59
2023-05-18T16:47:57.155Z,100335.13
2023-05-18T16:50:24.262Z,100343.72
2023-05-18T16:52:51.381Z,100344.81
2023-05-18T16:55:18.595Z,100346.84
2023-05-18T16:57:45.764Z,100351.50
2023-05-18T17:00:13.550Z,100354.75
2023-05-18T17:02:40.789Z,100350.31
2023-05-18T17:05:11.382Z,100352.75
2023-05-18T17:07:38.730Z,100356.84
2023-05-18T17:10:06.388Z,100363.34
2023-05-18T17:12:33.882Z,100366.59
2023-05-18T17:15:02.758Z,100368.94
2023-05-18T17:17:30.253Z,100369.75
2023-05-18T17:19:57.451Z,100369.97
2023-05-18T17:22:24.623Z,100362.91
2023-05-18T17:24:51.641Z,100372.13
2023-05-18T17:27:18.713Z,100365.25
2023-05-18T17:29:45.711Z,100369.94
2023-05-18T17:32:12.702Z,100373.25
2023-05-18T17:34:40.510Z,100370.28
2023-05-18T17:37:07.561Z,100375.91
2023-05-18T17:39:34.698Z,100381.16
2023-05-18T17:42:01.944Z,100382.16
2023-05-18T17:44:29.604Z,100382.03
2023-05-18T17:46:56.912Z,100378.41
2023-05-18T17:49:24.026Z,100387.38
2023-05-18T17:51:52.455Z,100370.72
2023-05-18T17:54:19.566Z,100375.47
2023-05-18T17:56:46.824Z,100371.38
2023-05-18T17:59:13.879Z,100383.31
2023-05-18T18:01:41.053Z,100381.41
2023-05-18T18:04:08.134Z,100376.31
2023-05-18T18:06:38.413Z,100380.97
2023-05-18T18:09:05.435Z,100378.22
2023-05-18T18:11:32.574Z,100372.25
2023-05-18T18:14:00.292Z,100385.13
2023-05-18T18:16:27.415Z,100383.91
2023-05-18T18:18:54.575Z,100382.72
2023-05-18T18:21:21.709Z,100387.03
2023-05-18T18:23:48.755Z,100388.91
2023-05-18T18:26:15.898Z,100386.75
2023-05-18T18:28:43.080Z,100395.00
2023-05-18T18:31:10.094Z,100394.72
2023-05-18T18:33:37.144Z,100386.38
2023-05-18T18:36:05.879Z,100386.25
2023-05-18T18:38:34.116Z,100385.34
2023-05-18T18:41:04.460Z,100384.44
2023-05-18T18:43:31.661Z,100381.56
2023-05-18T18:45:59.736Z,100385.28
2023-05-18T18:48:27.168Z,100388.59
2023-05-18T18:50:54.394Z,100379.91
2023-05-18T18:53:21.555Z,100385.13
2023-05-18T18:55:48.698Z,100377.91
2023-05-18T18:58:16.276Z,100380.06
2023-05-18T19:00:43.812Z,100368.78
2023-05-18T19:03:11.295Z,100370.88
2023-05-18T19:05:39.265Z,100376.56
2023-05-18T19:08:06.472Z,100371.47
2023-05-18T19:10:34.448Z,100371.66
2023-05-18T19:13:05.835Z,100365.44
2023-05-18T19:15:36.917Z,100365.28
2023-05-18T19:18:04.202Z,100369.09
2023-05-18T19:20:31.375Z,100364.59
2023-05-18T19:22:58.430Z,100357.16
2023-05-18T19:25:26.431Z,100362.03
2023-05-18T19:27:53.916Z,100376.53
2023-05-18T19:30:22.034Z,100373.66
2023-05-18T19:32:50.006Z,100373.63
2023-05-18T19:35:19.776Z,100374.69
2023-05-18T19:37:47.806Z,100388.47
2023-05-18T19:40:15.430Z,100374.94
2023-05-18T19:42:42.428Z,100380.94
2023-05-18T19:45:09.604Z,100378.97
2023-05-18T19:47:36.870Z,100375.22
2023-05-18T19:50:04.733Z,100373.28
2023-05-18T19:52:33.756Z,100365.75
2023-05-18T19:55:02.456Z,100364.22
2023-05-18T19:57:29.897Z,100361.38
2023-05-18T19:59:57.983Z,100364.91
2023-05-18T20:02:25.778Z,100352.94
2023-05-18T20:04:53.834Z,100356.41
2023-05-18T20:07:22.768Z,100350.16
2023-05-18T20:09:53.136Z,100343.13
2023-05-18T20:12:20.771Z,100331.84
2023-05-18T20:14:48.615Z,100334.69
2023-05-18T20:17:17.023Z,100345.50
2023-05-18T20:19:49.941Z,100346.03
2023-05-18T20:22:20.519Z,100341.81
2023-05-18T20:24:49.089Z,100334.50
2023-05-18T20:27:16.896Z,100339.63
2023-05-18T20:29:44.017Z,100328.81
2023-05-18T20:32:11.248Z,100335.22
2023-05-18T20:34:38.457Z,100325.59
2023-05-18T20:37:05.903Z,100329.97
2023-05-18T20:39:33.105Z,100344.00
2023-05-18T20:42:00.325Z,100330.66
2023-05-18T20:44:28.936Z,100343.16
2023-05-18T20:46:56.056Z,100334.91
2023-05-18T20:49:25.070Z,100348.16
2023-05-18T20:51:52.192Z,100347.50
2023-05-18T20:54:21.460Z,100347.75
2023-05-18T20:56:48.773Z,100337.19
2023-05-18T20:59:16.363Z,100348.03
2023-05-18T21:01:43.505Z,100342.50
2023-05-18T21:04:12.734Z,100345.13
2023-05-18T21:06:41.192Z,100348.56
2023-05-18T21:09:08.539Z,100341.53
2023-05-18T21:11:36.023Z,100351.16
2023-05-18T21:14:03.140Z,100350.38
2023-05-18T21:16:30.330Z,100352.41
2023-05-18T21:18:57.547Z,100343.47
2023-05-18T21:21:24.640Z,100349.28
2023-05-18T21:23:52.038Z,100340.34
2023-05-18T21:26:19.217Z,100347.41
2023-05-18T21:28:46.222Z,100340.03
2023-05-18T21:31:13.347Z,100338.53
2023-05-18T21:33:42.099Z,100340.31
2023-05-18T21:36:10.152Z,100348.00
2023-05-18T21:38:37.284Z,100354.47
2023-05-18T21:41:04.380Z,100362.56
2023-05-18T21:43:31.419Z,100350.25
2023-05-18T21:45:58.849Z,100338.91
2023-05-18T21:48:25.979Z,100345.09
2023-05-18T21:50:53.013Z,100344.97
2023-05-18T21:53:20.036Z,100339.53
2023-05-18T21:55:47.146Z,100345.09
2023-05-18T21:58:14.149Z,100347.88
2023-05-18T22:00:41.270Z,100335.31
2023-05-18T22:03:08.434Z,100330.00
2023-05-18T22:05:35.568Z,100329.72
2023-05-18T22:08:02.638Z,100327.84
2023-05-18T22:10:31.360Z,100334.97
2023-05-18T22:12:58.602Z,100339.41
2023-05-18T22:15:25.685Z,100343.19
2023-05-18T22:17:54.156Z,100342.88
2023-05-18T22:20:21.620Z,100336.47
2023-05-18T22:22:48.835Z,100346.56
2023-05-18T22:25:18.143Z,100345.53
2023-05-18T22:27:45.847Z,100344.91
2023-05-18T22:30:14.279Z,100347.31
2023-05-18T22:32:41.378Z,100347.97
2023-05-18T22:35:09.425Z,100342.47
2023-05-18T22:37:36.821Z,100345.03
2023-05-18T22:40:06.587Z,100335.09
2023-05-18T22:42:33.886Z,100345.38
2023-05-18T22:45:01.377Z,100350.91
2023-05-18T22:47:29.733Z,100343.66
2023-05-18T22:49:56.972Z,100341.28
2023-05-18T22:52:24.030Z,100341.19
2023-05-18T22:54:51.078Z,100345.78
2023-05-18T22:57:18.121Z,100345.97
2023-05-18T22:59:45.185Z,100350.22
2023-05-18T23:02:12.454Z,100351.75
2023-05-18T23:04:39.539Z,100354.28
2023-05-18T23:07:06.822Z,100356.41
2023-05-18T23:09:33.957Z,100365.34
2023-05-18T23:12:01.292Z,100373.47
2023-05-18T23:14:32.644Z,100362.91
2023-05-18T23:17:00.580Z,100376.78
2023-05-18T23:19:28.139Z,100380.25
2023-05-18T23:21:56.116Z,100390.78
2023-05-18T23:24:23.157Z,100391.47
2023-05-18T23:26:50.229Z,100393.28
2023-05-18T23:29:17.457Z,100390.94
2023-05-18T23:31:44.537Z,100387.28
2023-05-18T23:34:11.860Z,100389.41
2023-05-18T23:36:42.736Z,100390.19
2023-05-18T23:39:10.320Z,100384.56
2023-05-18T23:41:37.915Z,100393.59
2023-05-18T23:44:05.477Z,100387.50
2023-05-18T23:46:32.781Z,100383.06
2023-05-18T23:49:00.306Z,100385.25
2023-05-18T23:51:32.173Z,100377.94
2023-05-18T23:53:59.648Z,100394.09
2023-05-18T23:56:26.944Z,100381.31
2023-05-18T23:58:54.269Z,100383.97
